sensor_id;sensor_type;location;lat;lon;timestamp;P1;durP1;ratioP1;P2;durP2;ratioP2
52318;SDS011;38258;51.148;14.068;2023-07-29T00:01:25;7.90;;;2.55;;
52318;SDS011;38258;51.148;14.068;2023-07-29T00:03:52;3.85;;;2.28;;
52318;SDS011;38258;51.148;14.068;2023-07-29T00:06:19;4.57;;;2.55;;
52318;SDS011;38258;51.148;14.068;2023-07-29T00:08:47;4.72;;;2.33;;
52318;SDS011;38258;51.148;14.068;2023-07-29T00:11:13;4.78;;;2.40;;
52318;SDS011;38258;51.148;14.068;2023-07-29T00:13:40;8.52;;;2.50;;
52318;SDS011;38258;51.148;14.068;2023-07-29T00:16:07;10.63;;;2.60;;
52318;SDS011;38258;51.148;14.068;2023-07-29T00:18:34;5.57;;;2.40;;
52318;SDS011;38258;51.148;14.068;2023-07-29T00:21:00;13.05;;;2.75;;
52318;SDS011;38258;51.148;14.068;2023-07-29T00:23:28;6.80;;;2.88;;
52318;SDS011;38258;51.148;14.068;2023-07-29T00:25:57;5.90;;;2.70;;
52318;SDS011;38258;51.148;14.068;2023-07-29T00:28:23;6.97;;;2.78;;
52318;SDS011;38258;51.148;14.068;2023-07-29T00:30:50;8.18;;;2.50;;
52318;SDS011;38258;51.148;14.068;2023-07-29T00:33:17;14.60;;;3.30;;
52318;SDS011;38258;51.148;14.068;2023-07-29T00:35:45;5.78;;;3.20;;
52318;SDS011;38258;51.148;14.068;2023-07-29T00:38:12;6.18;;;2.90;;
52318;SDS011;38258;51.148;14.068;2023-07-29T00:40:38;7.43;;;2.85;;
52318;SDS011;38258;51.148;14.068;2023-07-29T00:43:06;4.53;;;2.80;;
52318;SDS011;38258;51.148;14.068;2023-07-29T00:45:34;6.78;;;3.03;;
52318;SDS011;38258;51.148;14.068;2023-07-29T00:48:02;7.57;;;3.08;;
52318;SDS011;38258;51.148;14.068;2023-07-29T00:50:30;8.02;;;3.33;;
52318;SDS011;38258;51.148;14.068;2023-07-29T00:52:59;10.45;;;3.17;;
52318;SDS011;38258;51.148;14.068;2023-07-29T00:55:26;7.65;;;3.78;;
52318;SDS011;38258;51.148;14.068;2023-07-29T00:57:54;12.85;;;3.90;;
52318;SDS011;38258;51.148;14.068;2023-07-29T01:00:22;9.48;;;3.15;;
52318;SDS011;38258;51.148;14.068;2023-07-29T01:02:49;8.02;;;3.15;;
52318;SDS011;38258;51.148;14.068;2023-07-29T01:05:18;5.43;;;3.00;;
52318;SDS011;38258;51.148;14.068;2023-07-29T01:07:47;5.20;;;3.03;;
52318;SDS011;38258;51.148;14.068;2023-07-29T01:10:19;7.00;;;3.40;;
52318;SDS011;38258;51.148;14.068;2023-07-29T01:12:57;5.18;;;3.10;;
52318;SDS011;38258;51.148;14.068;2023-07-29T01:15:33;5.47;;;3.00;;
52318;SDS011;38258;51.148;14.068;2023-07-29T01:18:08;11.88;;;3.10;;
52318;SDS011;38258;51.148;14.068;2023-07-29T01:20:40;8.52;;;2.83;;
52318;SDS011;38258;51.148;14.068;2023-07-29T01:23:11;7.25;;;3.15;;
52318;SDS011;38258;51.148;14.068;2023-07-29T01:25:40;17.50;;;3.40;;
52318;SDS011;38258;51.148;14.068;2023-07-29T01:28:07;14.10;;;3.30;;
52318;SDS011;38258;51.148;14.068;2023-07-29T01:30:40;11.07;;;3.50;;
52318;SDS011;38258;51.148;14.068;2023-07-29T01:33:11;9.73;;;3.13;;
52318;SDS011;38258;51.148;14.068;2023-07-29T01:35:42;14.73;;;3.58;;
52318;SDS011;38258;51.148;14.068;2023-07-29T01:38:13;12.85;;;4.15;;
52318;SDS011;38258;51.148;14.068;2023-07-29T01:40:44;8.73;;;3.22;;
52318;SDS011;38258;51.148;14.068;2023-07-29T01:43:12;9.35;;;3.67;;
52318;SDS011;38258;51.148;14.068;2023-07-29T01:45:39;16.50;;;3.30;;
52318;SDS011;38258;51.148;14.068;2023-07-29T01:48:06;10.15;;;3.78;;
52318;SDS011;38258;51.148;14.068;2023-07-29T01:50:33;4.57;;;3.20;;
52318;SDS011;38258;51.148;14.068;2023-07-29T01:53:01;4.80;;;3.22;;
52318;SDS011;38258;51.148;14.068;2023-07-29T01:55:28;5.30;;;2.90;;
52318;SDS011;38258;51.148;14.068;2023-07-29T01:57:56;6.45;;;3.00;;
52318;SDS011;38258;51.148;14.068;2023-07-29T02:00:24;10.40;;;3.13;;
52318;SDS011;38258;51.148;14.068;2023-07-29T02:02:50;8.57;;;2.88;;
52318;SDS011;38258;51.148;14.068;2023-07-29T02:05:17;14.57;;;3.40;;
52318;SDS011;38258;51.148;14.068;2023-07-29T02:07:44;6.03;;;2.70;;
52318;SDS011;38258;51.148;14.068;2023-07-29T02:10:11;11.05;;;3.67;;
52318;SDS011;38258;51.148;14.068;2023-07-29T02:12:38;5.40;;;2.88;;
52318;SDS011;38258;51.148;14.068;2023-07-29T02:15:07;10.55;;;2.95;;
52318;SDS011;38258;51.148;14.068;2023-07-29T02:17:34;5.90;;;2.97;;
52318;SDS011;38258;51.148;14.068;2023-07-29T02:20:01;6.72;;;3.05;;
52318;SDS011;38258;51.148;14.068;2023-07-29T02:22:29;4.15;;;2.85;;
52318;SDS011;38258;51.148;14.068;2023-07-29T02:24:55;4.97;;;2.92;;
52318;SDS011;38258;51.148;14.068;2023-07-29T02:27:23;5.10;;;2.95;;
52318;SDS011;38258;51.148;14.068;2023-07-29T02:29:51;3.60;;;2.90;;
52318;SDS011;38258;51.148;14.068;2023-07-29T02:32:19;4.07;;;3.08;;
52318;SDS011;38258;51.148;14.068;2023-07-29T02:34:46;6.00;;;3.33;;
52318;SDS011;38258;51.148;14.068;2023-07-29T02:37:13;6.05;;;3.03;;
52318;SDS011;38258;51.148;14.068;2023-07-29T02:39:40;4.15;;;2.90;;
52318;SDS011;38258;51.148;14.068;2023-07-29T02:42:06;5.32;;;2.95;;
52318;SDS011;38258;51.148;14.068;2023-07-29T02:44:33;8.38;;;3.65;;
52318;SDS011;38258;51.148;14.068;2023-07-29T02:47:00;15.32;;;3.53;;
52318;SDS011;38258;51.148;14.068;2023-07-29T02:49:28;12.10;;;3.30;;
52318;SDS011;38258;51.148;14.068;2023-07-29T02:51:55;5.78;;;3.28;;
52318;SDS011;38258;51.148;14.068;2023-07-29T02:54:22;6.45;;;3.63;;
52318;SDS011;38258;51.148;14.068;2023-07-29T02:56:49;10.20;;;3.60;;
52318;SDS011;38258;51.148;14.068;2023-07-29T02:59:17;6.90;;;3.10;;
52318;SDS011;38258;51.148;14.068;2023-07-29T03:01:43;8.75;;;3.40;;
52318;SDS011;38258;51.148;14.068;2023-07-29T03:04:10;5.93;;;3.17;;
52318;SDS011;38258;51.148;14.068;2023-07-29T03:06:40;7.25;;;3.38;;
52318;SDS011;38258;51.148;14.068;2023-07-29T03:09:07;4.00;;;3.10;;
52318;SDS011;38258;51.148;14.068;2023-07-29T03:11:34;5.40;;;3.13;;
52318;SDS011;38258;51.148;14.068;2023-07-29T03:14:01;4.05;;;2.97;;
52318;SDS011;38258;51.148;14.068;2023-07-29T03:16:29;4.35;;;3.22;;
52318;SDS011;38258;51.148;14.068;2023-07-29T03:18:57;5.20;;;3.10;;
52318;SDS011;38258;51.148;14.068;2023-07-29T03:21:25;4.07;;;3.28;;
52318;SDS011;38258;51.148;14.068;2023-07-29T03:23:53;5.45;;;3.30;;
52318;SDS011;38258;51.148;14.068;2023-07-29T03:26:20;4.90;;;2.85;;
52318;SDS011;38258;51.148;14.068;2023-07-29T03:28:47;3.72;;;3.03;;
52318;SDS011;38258;51.148;14.068;2023-07-29T03:31:14;4.50;;;3.33;;
52318;SDS011;38258;51.148;14.068;2023-07-29T03:33:41;6.15;;;2.97;;
52318;SDS011;38258;51.148;14.068;2023-07-29T03:36:08;3.97;;;3.10;;
52318;SDS011;38258;51.148;14.068;2023-07-29T03:38:34;4.05;;;3.15;;
52318;SDS011;38258;51.148;14.068;2023-07-29T03:41:06;5.13;;;3.45;;
52318;SDS011;38258;51.148;14.068;2023-07-29T03:43:33;4.88;;;2.75;;
52318;SDS011;38258;51.148;14.068;2023-07-29T03:46:01;4.38;;;3.22;;
52318;SDS011;38258;51.148;14.068;2023-07-29T03:48:28;4.07;;;3.05;;
52318;SDS011;38258;51.148;14.068;2023-07-29T03:50:56;4.95;;;3.47;;
52318;SDS011;38258;51.148;14.068;2023-07-29T03:53:23;3.67;;;3.28;;
52318;SDS011;38258;51.148;14.068;2023-07-29T03:55:50;3.85;;;3.00;;
52318;SDS011;38258;51.148;14.068;2023-07-29T03:58:18;4.45;;;2.90;;
52318;SDS011;38258;51.148;14.068;2023-07-29T04:00:45;4.25;;;3.15;;
52318;SDS011;38258;51.148;14.068;2023-07-29T04:03:12;3.90;;;3.13;;
52318;SDS011;38258;51.148;14.068;2023-07-29T04:05:39;3.67;;;3.10;;
52318;SDS011;38258;51.148;14.068;2023-07-29T04:08:05;4.72;;;2.83;;
52318;SDS011;38258;51.148;14.068;2023-07-29T04:10:32;3.90;;;2.97;;
52318;SDS011;38258;51.148;14.068;2023-07-29T04:13:00;3.88;;;3.00;;
52318;SDS011;38258;51.148;14.068;2023-07-29T04:15:28;4.07;;;2.97;;
52318;SDS011;38258;51.148;14.068;2023-07-29T04:17:55;3.55;;;2.72;;
52318;SDS011;38258;51.148;14.068;2023-07-29T04:20:22;4.00;;;2.70;;
52318;SDS011;38258;51.148;14.068;2023-07-29T04:22:49;3.38;;;2.53;;
52318;SDS011;38258;51.148;14.068;2023-07-29T04:25:16;4.78;;;2.70;;
52318;SDS011;38258;51.148;14.068;2023-07-29T04:27:42;5.05;;;2.88;;
52318;SDS011;38258;51.148;14.068;2023-07-29T04:30:10;5.57;;;2.70;;
52318;SDS011;38258;51.148;14.068;2023-07-29T04:32:38;4.10;;;2.70;;
52318;SDS011;38258;51.148;14.068;2023-07-29T04:35:07;3.55;;;2.30;;
52318;SDS011;38258;51.148;14.068;2023-07-29T04:37:36;4.13;;;2.60;;
52318;SDS011;38258;51.148;14.068;2023-07-29T04:40:03;4.13;;;2.70;;
52318;SDS011;38258;51.148;14.068;2023-07-29T04:42:30;4.60;;;2.90;;
52318;SDS011;38258;51.148;14.068;2023-07-29T04:44:57;5.57;;;2.40;;
52318;SDS011;38258;51.148;14.068;2023-07-29T04:47:23;3.55;;;2.55;;
52318;SDS011;38258;51.148;14.068;2023-07-29T04:49:52;4.22;;;2.20;;
52318;SDS011;38258;51.148;14.068;2023-07-29T04:52:18;3.80;;;2.40;;
52318;SDS011;38258;51.148;14.068;2023-07-29T04:54:46;3.55;;;2.30;;
52318;SDS011;38258;51.148;14.068;2023-07-29T04:57:12;2.97;;;2.28;;
52318;SDS011;38258;51.148;14.068;2023-07-29T04:59:39;2.60;;;2.20;;
52318;SDS011;38258;51.148;14.068;2023-07-29T05:02:06;3.22;;;2.45;;
52318;SDS011;38258;51.148;14.068;2023-07-29T05:04:32;3.50;;;2.30;;
52318;SDS011;38258;51.148;14.068;2023-07-29T05:07:01;2.88;;;2.00;;
52318;SDS011;38258;51.148;14.068;2023-07-29T05:09:27;2.78;;;2.10;;
52318;SDS011;38258;51.148;14.068;2023-07-29T05:11:54;3.20;;;2.20;;
52318;SDS011;38258;51.148;14.068;2023-07-29T05:14:21;2.97;;;2.05;;
52318;SDS011;38258;51.148;14.068;2023-07-29T05:16:48;7.35;;;2.40;;
52318;SDS011;38258;51.148;14.068;2023-07-29T05:19:15;2.75;;;1.90;;
52318;SDS011;38258;51.148;14.068;2023-07-29T05:21:42;2.25;;;1.80;;
52318;SDS011;38258;51.148;14.068;2023-07-29T05:24:10;3.05;;;2.00;;
52318;SDS011;38258;51.148;14.068;2023-07-29T05:26:37;3.30;;;2.22;;
52318;SDS011;38258;51.148;14.068;2023-07-29T05:29:04;2.70;;;2.00;;
52318;SDS011;38258;51.148;14.068;2023-07-29T05:31:31;2.30;;;2.00;;
52318;SDS011;38258;51.148;14.068;2023-07-29T05:33:58;2.42;;;1.90;;
52318;SDS011;38258;51.148;14.068;2023-07-29T05:36:25;2.97;;;1.95;;
52318;SDS011;38258;51.148;14.068;2023-07-29T05:38:51;4.20;;;1.90;;
52318;SDS011;38258;51.148;14.068;2023-07-29T05:41:20;2.15;;;1.80;;
52318;SDS011;38258;51.148;14.068;2023-07-29T05:43:47;2.70;;;1.80;;
52318;SDS011;38258;51.148;14.068;2023-07-29T05:46:14;2.40;;;1.70;;
52318;SDS011;38258;51.148;14.068;2023-07-29T05:48:41;2.17;;;1.80;;
52318;SDS011;38258;51.148;14.068;2023-07-29T05:51:07;2.70;;;1.77;;
52318;SDS011;38258;51.148;14.068;2023-07-29T05:53:35;2.35;;;1.80;;
52318;SDS011;38258;51.148;14.068;2023-07-29T05:56:02;2.60;;;1.88;;
52318;SDS011;38258;51.148;14.068;2023-07-29T05:58:30;2.00;;;1.67;;
52318;SDS011;38258;51.148;14.068;2023-07-29T06:00:57;1.98;;;1.60;;
52318;SDS011;38258;51.148;14.068;2023-07-29T06:03:24;3.45;;;1.88;;
52318;SDS011;38258;51.148;14.068;2023-07-29T06:05:51;2.33;;;1.90;;
52318;SDS011;38258;51.148;14.068;2023-07-29T06:08:18;2.20;;;1.70;;
52318;SDS011;38258;51.148;14.068;2023-07-29T06:10:44;2.00;;;1.60;;
52318;SDS011;38258;51.148;14.068;2023-07-29T06:13:11;1.90;;;1.70;;
52318;SDS011;38258;51.148;14.068;2023-07-29T06:15:39;2.38;;;1.70;;
52318;SDS011;38258;51.148;14.068;2023-07-29T06:18:06;1.85;;;1.60;;
52318;SDS011;38258;51.148;14.068;2023-07-29T06:20:33;4.07;;;1.70;;
52318;SDS011;38258;51.148;14.068;2023-07-29T06:23:00;3.85;;;1.70;;
52318;SDS011;38258;51.148;14.068;2023-07-29T06:25:27;2.88;;;1.90;;
52318;SDS011;38258;51.148;14.068;2023-07-29T06:27:54;2.20;;;1.73;;
52318;SDS011;38258;51.148;14.068;2023-07-29T06:30:20;3.63;;;1.90;;
52318;SDS011;38258;51.148;14.068;2023-07-29T06:32:48;2.00;;;1.70;;
52318;SDS011;38258;51.148;14.068;2023-07-29T06:35:15;2.25;;;1.70;;
52318;SDS011;38258;51.148;14.068;2023-07-29T06:37:42;2.95;;;1.90;;
52318;SDS011;38258;51.148;14.068;2023-07-29T06:40:09;2.80;;;1.80;;
52318;SDS011;38258;51.148;14.068;2023-07-29T06:42:37;3.47;;;1.90;;
52318;SDS011;38258;51.148;14.068;2023-07-29T06:45:04;2.88;;;1.60;;
52318;SDS011;38258;51.148;14.068;2023-07-29T06:47:32;2.20;;;1.80;;
52318;SDS011;38258;51.148;14.068;2023-07-29T06:50:00;2.58;;;1.60;;
52318;SDS011;38258;51.148;14.068;2023-07-29T06:52:27;6.25;;;1.80;;
52318;SDS011;38258;51.148;14.068;2023-07-29T06:54:54;2.20;;;1.65;;
52318;SDS011;38258;51.148;14.068;2023-07-29T06:57:21;2.35;;;1.70;;
52318;SDS011;38258;51.148;14.068;2023-07-29T06:59:47;2.58;;;1.75;;
52318;SDS011;38258;51.148;14.068;2023-07-29T07:02:14;2.53;;;1.70;;
52318;SDS011;38258;51.148;14.068;2023-07-29T07:04:41;2.50;;;1.98;;
52318;SDS011;38258;51.148;14.068;2023-07-29T07:07:09;2.40;;;1.77;;
52318;SDS011;38258;51.148;14.068;2023-07-29T07:09:36;1.85;;;1.60;;
52318;SDS011;38258;51.148;14.068;2023-07-29T07:12:03;2.08;;;1.67;;
52318;SDS011;38258;51.148;14.068;2023-07-29T07:14:30;2.28;;;1.70;;
52318;SDS011;38258;51.148;14.068;2023-07-29T07:16:57;2.70;;;1.80;;
52318;SDS011;38258;51.148;14.068;2023-07-29T07:19:24;2.20;;;1.70;;
52318;SDS011;38258;51.148;14.068;2023-07-29T07:21:51;1.70;;;1.60;;
52318;SDS011;38258;51.148;14.068;2023-07-29T07:24:19;2.38;;;1.50;;
52318;SDS011;38258;51.148;14.068;2023-07-29T07:26:46;1.70;;;1.60;;
52318;SDS011;38258;51.148;14.068;2023-07-29T07:29:12;2.22;;;1.70;;
52318;SDS011;38258;51.148;14.068;2023-07-29T07:31:40;1.70;;;1.50;;
52318;SDS011;38258;51.148;14.068;2023-07-29T07:34:06;2.63;;;1.50;;
52318;SDS011;38258;51.148;14.068;2023-07-29T07:36:33;2.35;;;1.60;;
52318;SDS011;38258;51.148;14.068;2023-07-29T07:39:00;3.75;;;1.60;;
52318;SDS011;38258;51.148;14.068;2023-07-29T07:41:28;2.00;;;1.60;;
52318;SDS011;38258;51.148;14.068;2023-07-29T07:43:55;2.03;;;1.60;;
52318;SDS011;38258;51.148;14.068;2023-07-29T07:46:22;2.78;;;1.52;;
52318;SDS011;38258;51.148;14.068;2023-07-29T07:48:48;2.60;;;1.70;;
52318;SDS011;38258;51.148;14.068;2023-07-29T07:51:15;2.00;;;1.50;;
52318;SDS011;38258;51.148;14.068;2023-07-29T07:53:42;1.80;;;1.60;;
52318;SDS011;38258;51.148;14.068;2023-07-29T07:56:12;1.90;;;1.60;;
52318;SDS011;38258;51.148;14.068;2023-07-29T07:58:40;1.70;;;1.42;;
52318;SDS011;38258;51.148;14.068;2023-07-29T08:01:08;1.85;;;1.52;;
52318;SDS011;38258;51.148;14.068;2023-07-29T08:03:36;2.10;;;1.65;;
52318;SDS011;38258;51.148;14.068;2023-07-29T08:06:04;1.92;;;1.45;;
52318;SDS011;38258;51.148;14.068;2023-07-29T08:08:31;1.90;;;1.48;;
52318;SDS011;38258;51.148;14.068;2023-07-29T08:10:57;2.03;;;1.50;;
52318;SDS011;38258;51.148;14.068;2023-07-29T08:13:24;1.70;;;1.40;;
52318;SDS011;38258;51.148;14.068;2023-07-29T08:15:58;1.60;;;1.50;;
52318;SDS011;38258;51.148;14.068;2023-07-29T08:18:25;2.10;;;1.60;;
52318;SDS011;38258;51.148;14.068;2023-07-29T08:20:52;1.70;;;1.50;;
52318;SDS011;38258;51.148;14.068;2023-07-29T08:23:20;2.97;;;1.55;;
52318;SDS011;38258;51.148;14.068;2023-07-29T08:25:50;2.60;;;1.60;;
52318;SDS011;38258;51.148;14.068;2023-07-29T08:28:19;1.77;;;1.40;;
52318;SDS011;38258;51.148;14.068;2023-07-29T08:30:45;1.55;;;1.30;;
52318;SDS011;38258;51.148;14.068;2023-07-29T08:33:14;1.83;;;1.50;;
52318;SDS011;38258;51.148;14.068;2023-07-29T08:35:41;2.13;;;1.50;;
52318;SDS011;38258;51.148;14.068;2023-07-29T08:38:07;1.70;;;1.40;;
52318;SDS011;38258;51.148;14.068;2023-07-29T08:40:34;1.90;;;1.50;;
52318;SDS011;38258;51.148;14.068;2023-07-29T08:43:03;1.70;;;1.40;;
52318;SDS011;38258;51.148;14.068;2023-07-29T08:45:32;2.00;;;1.50;;
52318;SDS011;38258;51.148;14.068;2023-07-29T08:48:02;2.95;;;1.35;;
52318;SDS011;38258;51.148;14.068;2023-07-29T08:50:34;2.15;;;1.60;;
52318;SDS011;38258;51.148;14.068;2023-07-29T08:53:03;2.10;;;1.42;;
52318;SDS011;38258;51.148;14.068;2023-07-29T08:55:31;1.95;;;1.55;;
52318;SDS011;38258;51.148;14.068;2023-07-29T08:57:58;2.08;;;1.60;;
52318;SDS011;38258;51.148;14.068;2023-07-29T09:00:27;1.98;;;1.42;;
52318;SDS011;38258;51.148;14.068;2023-07-29T09:02:54;1.92;;;1.40;;
52318;SDS011;38258;51.148;14.068;2023-07-29T09:05:23;1.70;;;1.40;;
52318;SDS011;38258;51.148;14.068;2023-07-29T09:07:51;1.70;;;1.33;;
52318;SDS011;38258;51.148;14.068;2023-07-29T09:10:21;2.33;;;1.45;;
52318;SDS011;38258;51.148;14.068;2023-07-29T09:12:48;1.35;;;1.17;;
52318;SDS011;38258;51.148;14.068;2023-07-29T09:15:25;2.22;;;1.30;;
52318;SDS011;38258;51.148;14.068;2023-07-29T09:17:53;1.40;;;1.20;;
52318;SDS011;38258;51.148;14.068;2023-07-29T09:20:25;1.77;;;1.35;;
52318;SDS011;38258;51.148;14.068;2023-07-29T09:22:54;2.42;;;1.25;;
52318;SDS011;38258;51.148;14.068;2023-07-29T09:25:24;2.95;;;1.60;;
52318;SDS011;38258;51.148;14.068;2023-07-29T09:27:52;1.55;;;1.30;;
52318;SDS011;38258;51.148;14.068;2023-07-29T09:30:19;1.55;;;1.20;;
52318;SDS011;38258;51.148;14.068;2023-07-29T09:32:45;1.85;;;1.25;;
52318;SDS011;38258;51.148;14.068;2023-07-29T09:35:12;1.75;;;1.20;;
52318;SDS011;38258;51.148;14.068;2023-07-29T09:37:39;1.60;;;1.30;;
52318;SDS011;38258;51.148;14.068;2023-07-29T09:40:12;1.50;;;1.23;;
52318;SDS011;38258;51.148;14.068;2023-07-29T09:42:47;2.15;;;1.17;;
52318;SDS011;38258;51.148;14.068;2023-07-29T09:45:19;1.13;;;1.02;;
52318;SDS011;38258;51.148;14.068;2023-07-29T09:47:49;1.45;;;1.10;;
52318;SDS011;38258;51.148;14.068;2023-07-29T09:50:18;1.65;;;1.40;;
52318;SDS011;38258;51.148;14.068;2023-07-29T09:52:56;1.83;;;1.10;;
52318;SDS011;38258;51.148;14.068;2023-07-29T09:55:27;1.80;;;1.20;;
52318;SDS011;38258;51.148;14.068;2023-07-29T09:57:54;1.40;;;1.13;;
52318;SDS011;38258;51.148;14.068;2023-07-29T10:00:23;1.42;;;1.00;;
52318;SDS011;38258;51.148;14.068;2023-07-29T10:02:50;1.40;;;1.05;;
52318;SDS011;38258;51.148;14.068;2023-07-29T10:05:18;4.07;;;2.08;;
52318;SDS011;38258;51.148;14.068;2023-07-29T10:07:46;2.03;;;1.20;;
52318;SDS011;38258;51.148;14.068;2023-07-29T10:10:14;1.38;;;1.20;;
52318;SDS011;38258;51.148;14.068;2023-07-29T10:12:44;2.10;;;1.60;;
52318;SDS011;38258;51.148;14.068;2023-07-29T10:15:11;1.88;;;1.30;;
52318;SDS011;38258;51.148;14.068;2023-07-29T10:17:39;1.75;;;1.35;;
52318;SDS011;38258;51.148;14.068;2023-07-29T10:20:06;1.85;;;1.30;;
52318;SDS011;38258;51.148;14.068;2023-07-29T10:22:36;2.25;;;1.33;;
52318;SDS011;38258;51.148;14.068;2023-07-29T10:25:04;1.85;;;1.38;;
52318;SDS011;38258;51.148;14.068;2023-07-29T10:27:35;1.55;;;1.40;;
52318;SDS011;38258;51.148;14.068;2023-07-29T10:30:11;1.55;;;1.38;;
52318;SDS011;38258;51.148;14.068;2023-07-29T10:32:40;1.75;;;1.35;;
52318;SDS011;38258;51.148;14.068;2023-07-29T10:35:09;2.33;;;1.50;;
52318;SDS011;38258;51.148;14.068;2023-07-29T10:37:36;2.42;;;1.50;;
52318;SDS011;38258;51.148;14.068;2023-07-29T10:40:06;1.92;;;1.42;;
52318;SDS011;38258;51.148;14.068;2023-07-29T10:42:34;2.40;;;1.65;;
52318;SDS011;38258;51.148;14.068;2023-07-29T10:47:55;3.15;;;1.70;;
52318;SDS011;38258;51.148;14.068;2023-07-29T10:50:21;4.63;;;1.60;;
52318;SDS011;38258;51.148;14.068;2023-07-29T10:52:49;5.32;;;1.95;;
52318;SDS011;38258;51.148;14.068;2023-07-29T10:55:27;5.10;;;1.58;;
52318;SDS011;38258;51.148;14.068;2023-07-29T10:58:08;2.45;;;1.70;;
52318;SDS011;38258;51.148;14.068;2023-07-29T11:00:38;1.98;;;1.60;;
52318;SDS011;38258;51.148;14.068;2023-07-29T11:03:06;3.60;;;1.80;;
52318;SDS011;38258;51.148;14.068;2023-07-29T11:05:47;2.45;;;1.77;;
52318;SDS011;38258;51.148;14.068;2023-07-29T11:08:18;2.22;;;1.77;;
52318;SDS011;38258;51.148;14.068;2023-07-29T11:13:40;2.10;;;1.60;;
52318;SDS011;38258;51.148;14.068;2023-07-29T11:16:09;1.58;;;1.40;;
52318;SDS011;38258;51.148;14.068;2023-07-29T11:18:38;3.10;;;1.60;;
52318;SDS011;38258;51.148;14.068;2023-07-29T11:21:07;2.35;;;1.58;;
52318;SDS011;38258;51.148;14.068;2023-07-29T11:23:34;2.28;;;1.40;;
52318;SDS011;38258;51.148;14.068;2023-07-29T11:26:02;2.40;;;1.60;;
52318;SDS011;38258;51.148;14.068;2023-07-29T11:28:29;3.10;;;1.50;;
52318;SDS011;38258;51.148;14.068;2023-07-29T11:30:57;1.50;;;1.30;;
52318;SDS011;38258;51.148;14.068;2023-07-29T11:33:24;1.95;;;1.40;;
52318;SDS011;38258;51.148;14.068;2023-07-29T11:35:54;2.83;;;1.80;;
52318;SDS011;38258;51.148;14.068;2023-07-29T11:38:22;2.58;;;1.40;;
52318;SDS011;38258;51.148;14.068;2023-07-29T11:40:56;2.72;;;1.40;;
52318;SDS011;38258;51.148;14.068;2023-07-29T11:43:25;2.92;;;1.25;;
52318;SDS011;38258;51.148;14.068;2023-07-29T11:45:53;1.55;;;1.30;;
52318;SDS011;38258;51.148;14.068;2023-07-29T11:48:26;2.22;;;1.35;;
52318;SDS011;38258;51.148;14.068;2023-07-29T11:50:54;1.40;;;1.23;;
52318;SDS011;38258;51.148;14.068;2023-07-29T11:53:21;1.92;;;1.40;;
52318;SDS011;38258;51.148;14.068;2023-07-29T11:55:49;3.28;;;1.50;;
52318;SDS011;38258;51.148;14.068;2023-07-29T11:58:17;2.80;;;1.50;;
52318;SDS011;38258;51.148;14.068;2023-07-29T12:00:44;1.60;;;1.50;;
52318;SDS011;38258;51.148;14.068;2023-07-29T12:03:11;3.00;;;1.50;;
52318;SDS011;38258;51.148;14.068;2023-07-29T12:05:38;1.50;;;1.30;;
52318;SDS011;38258;51.148;14.068;2023-07-29T12:08:07;2.00;;;1.40;;
52318;SDS011;38258;51.148;14.068;2023-07-29T12:10:34;3.17;;;1.40;;
52318;SDS011;38258;51.148;14.068;2023-07-29T12:13:02;8.48;;;1.50;;
52318;SDS011;38258;51.148;14.068;2023-07-29T12:15:29;1.90;;;1.38;;
52318;SDS011;38258;51.148;14.068;2023-07-29T12:17:56;1.55;;;1.30;;
52318;SDS011;38258;51.148;14.068;2023-07-29T12:20:24;1.90;;;1.40;;
52318;SDS011;38258;51.148;14.068;2023-07-29T12:22:52;1.65;;;1.30;;
52318;SDS011;38258;51.148;14.068;2023-07-29T12:25:20;2.10;;;1.40;;
52318;SDS011;38258;51.148;14.068;2023-07-29T12:27:48;2.35;;;1.60;;
52318;SDS011;38258;51.148;14.068;2023-07-29T12:30:15;2.03;;;1.60;;
52318;SDS011;38258;51.148;14.068;2023-07-29T12:32:45;2.42;;;1.35;;
52318;SDS011;38258;51.148;14.068;2023-07-29T12:35:12;2.80;;;1.60;;
52318;SDS011;38258;51.148;14.068;2023-07-29T12:37:39;1.73;;;1.40;;
52318;SDS011;38258;51.148;14.068;2023-07-29T12:40:09;3.45;;;1.60;;
52318;SDS011;38258;51.148;14.068;2023-07-29T12:42:49;2.72;;;1.40;;
52318;SDS011;38258;51.148;14.068;2023-07-29T12:45:16;2.75;;;1.60;;
52318;SDS011;38258;51.148;14.068;2023-07-29T12:47:44;1.75;;;1.60;;
52318;SDS011;38258;51.148;14.068;2023-07-29T12:50:11;1.90;;;1.42;;
52318;SDS011;38258;51.148;14.068;2023-07-29T12:52:37;1.48;;;1.20;;
52318;SDS011;38258;51.148;14.068;2023-07-29T12:55:05;2.28;;;1.48;;
52318;SDS011;38258;51.148;14.068;2023-07-29T12:57:35;1.95;;;1.30;;
52318;SDS011;38258;51.148;14.068;2023-07-29T13:00:02;2.35;;;1.52;;
52318;SDS011;38258;51.148;14.068;2023-07-29T13:02:30;1.83;;;1.30;;
52318;SDS011;38258;51.148;14.068;2023-07-29T13:04:57;1.50;;;1.30;;
52318;SDS011;38258;51.148;14.068;2023-07-29T13:07:24;1.70;;;1.30;;
52318;SDS011;38258;51.148;14.068;2023-07-29T13:09:51;1.98;;;1.50;;
52318;SDS011;38258;51.148;14.068;2023-07-29T13:12:18;2.55;;;1.58;;
52318;SDS011;38258;51.148;14.068;2023-07-29T13:14:46;1.50;;;1.20;;
52318;SDS011;38258;51.148;14.068;2023-07-29T13:17:13;1.55;;;1.23;;
52318;SDS011;38258;51.148;14.068;2023-07-29T13:19:39;1.73;;;1.38;;
52318;SDS011;38258;51.148;14.068;2023-07-29T13:22:06;1.83;;;1.20;;
52318;SDS011;38258;51.148;14.068;2023-07-29T13:24:33;1.83;;;1.30;;
52318;SDS011;38258;51.148;14.068;2023-07-29T13:27:00;2.40;;;1.40;;
52318;SDS011;38258;51.148;14.068;2023-07-29T13:29:27;2.05;;;1.30;;
52318;SDS011;38258;51.148;14.068;2023-07-29T13:31:56;1.55;;;1.30;;
52318;SDS011;38258;51.148;14.068;2023-07-29T13:34:22;1.77;;;1.30;;
52318;SDS011;38258;51.148;14.068;2023-07-29T13:36:49;1.67;;;1.20;;
52318;SDS011;38258;51.148;14.068;2023-07-29T13:39:16;1.70;;;1.30;;
52318;SDS011;38258;51.148;14.068;2023-07-29T13:41:43;2.45;;;1.50;;
52318;SDS011;38258;51.148;14.068;2023-07-29T13:44:09;2.03;;;1.33;;
52318;SDS011;38258;51.148;14.068;2023-07-29T13:46:37;1.67;;;1.30;;
52318;SDS011;38258;51.148;14.068;2023-07-29T13:49:05;1.83;;;1.30;;
52318;SDS011;38258;51.148;14.068;2023-07-29T13:51:32;1.75;;;1.20;;
52318;SDS011;38258;51.148;14.068;2023-07-29T13:53:58;1.60;;;1.25;;
52318;SDS011;38258;51.148;14.068;2023-07-29T13:56:25;1.75;;;1.30;;
52318;SDS011;38258;51.148;14.068;2023-07-29T13:58:52;1.83;;;1.25;;
52318;SDS011;38258;51.148;14.068;2023-07-29T14:01:19;1.45;;;1.30;;
52318;SDS011;38258;51.148;14.068;2023-07-29T14:03:46;2.30;;;1.40;;
52318;SDS011;38258;51.148;14.068;2023-07-29T14:06:14;1.80;;;1.20;;
52318;SDS011;38258;51.148;14.068;2023-07-29T14:08:41;1.30;;;1.13;;
52318;SDS011;38258;51.148;14.068;2023-07-29T14:11:07;3.20;;;1.38;;
52318;SDS011;38258;51.148;14.068;2023-07-29T14:13:34;2.03;;;1.30;;
52318;SDS011;38258;51.148;14.068;2023-07-29T14:16:01;1.90;;;1.50;;
52318;SDS011;38258;51.148;14.068;2023-07-29T14:18:28;1.77;;;1.38;;
52318;SDS011;38258;51.148;14.068;2023-07-29T14:20:55;1.58;;;1.30;;
52318;SDS011;38258;51.148;14.068;2023-07-29T14:23:23;1.85;;;1.27;;
52318;SDS011;38258;51.148;14.068;2023-07-29T14:25:50;2.20;;;1.35;;
52318;SDS011;38258;51.148;14.068;2023-07-29T14:28:16;2.13;;;1.30;;
52318;SDS011;38258;51.148;14.068;2023-07-29T14:30:43;3.03;;;1.30;;
52318;SDS011;38258;51.148;14.068;2023-07-29T14:33:10;3.17;;;1.33;;
52318;SDS011;38258;51.148;14.068;2023-07-29T14:35:37;2.97;;;1.30;;
52318;SDS011;38258;51.148;14.068;2023-07-29T14:38:03;1.70;;;1.20;;
52318;SDS011;38258;51.148;14.068;2023-07-29T14:40:32;1.70;;;1.20;;
52318;SDS011;38258;51.148;14.068;2023-07-29T14:42:59;1.70;;;1.30;;